Time;durP1;ratioP1;P1;durP2;ratioP2;P2;SDS_P1;SDS_P2;PMS_P1;PMS_P2;Temp;Humidity;BMP_temperature;BMP_pressure;BME280_temperature;BME280_humidity;BME280_pressure;Samples;Min_cycle;Max_cycle;Signal;HPM_P1;HPM_P2
2021/10/18 00:01:21;;;;;;;10.23;6.70;;;11.50;99.90;;;;;;5094288;28;20040;-71
2021/10/18 00:03:47;;;;;;;11.73;6.53;;;11.50;99.90;;;;;;5096010;28;20076;-70
2021/10/18 00:06:12;;;;;;;7.53;5.65;;;11.50;99.90;;;;;;5095351;28;20032;-71
2021/10/18 00:08:38;;;;;;;10.02;6.38;;;11.50;99.90;;;;;;5095395;28;20040;-70
2021/10/18 00:11:04;;;;;;;10.45;6.15;;;11.50;99.90;;;;;;5095351;28;20097;-71
2021/10/18 00:13:31;;;;;;;9.35;6.75;;;11.50;99.90;;;;;;5095342;28;20063;-70
2021/10/18 00:15:57;;;;;;;9.43;6.50;;;11.50;99.90;;;;;;5095036;28;20036;-70
2021/10/18 00:18:23;;;;;;;12.93;6.45;;;11.50;99.90;;;;;;5095469;28;20040;-71
2021/10/18 00:20:49;;;;;;;11.55;6.68;;;11.40;99.90;;;;;;5094604;28;20086;-70
2021/10/18 00:23:14;;;;;;;9.02;6.30;;;11.50;99.90;;;;;;5095526;28;20032;-70
2021/10/18 00:25:40;;;;;;;10.10;6.53;;;11.40;99.90;;;;;;5093693;28;20083;-70
2021/10/18 00:28:06;;;;;;;13.32;7.10;;;11.50;99.90;;;;;;5093980;28;20415;-70
2021/10/18 00:30:32;;;;;;;9.50;6.85;;;11.40;99.90;;;;;;5094853;28;20492;-70
2021/10/18 00:32:57;;;;;;;10.38;6.72;;;11.50;99.90;;;;;;5093799;28;20055;-71
2021/10/18 00:35:23;;;;;;;13.43;6.88;;;11.40;99.90;;;;;;5095259;28;20510;-71
2021/10/18 00:37:49;;;;;;;12.45;7.43;;;11.40;99.90;;;;;;5095377;28;20392;-70
2021/10/18 00:40:14;;;;;;;9.45;6.30;;;11.40;99.90;;;;;;5093096;28;20065;-71
2021/10/18 00:42:41;;;;;;;9.68;6.90;;;11.50;99.90;;;;;;5094559;28;20040;-70
2021/10/18 00:45:07;;;;;;;9.43;6.88;;;11.40;99.90;;;;;;5094639;28;20058;-70
2021/10/18 00:47:34;;;;;;;13.32;7.00;;;11.40;99.90;;;;;;5094841;28;20063;-71
2021/10/18 00:49:59;;;;;;;9.60;6.47;;;11.40;99.90;;;;;;5094249;28;20036;-70
2021/10/18 00:52:25;;;;;;;11.25;6.68;;;11.40;99.90;;;;;;5094372;28;20101;-70
2021/10/18 00:54:53;;;;;;;12.65;6.72;;;11.40;99.90;;;;;;5094388;28;20040;-70
2021/10/18 00:57:19;;;;;;;10.00;7.07;;;11.40;99.90;;;;;;5093358;28;20044;-71
2021/10/18 00:59:46;;;;;;;13.68;7.85;;;11.40;99.90;;;;;;5094263;28;20032;-71
2021/10/18 01:02:12;;;;;;;10.65;7.32;;;11.40;99.90;;;;;;5094250;28;20040;-70
2021/10/18 01:04:38;;;;;;;12.65;7.68;;;11.40;99.90;;;;;;5093167;28;20076;-70
2021/10/18 01:07:05;;;;;;;10.40;7.90;;;11.40;99.90;;;;;;5092784;28;20078;-70
2021/10/18 01:09:31;;;;;;;14.95;6.90;;;11.40;99.90;;;;;;5093741;28;20039;-71
2021/10/18 01:11:56;;;;;;;11.65;6.78;;;11.40;99.90;;;;;;5093977;28;20591;-71
2021/10/18 01:14:22;;;;;;;11.55;7.50;;;11.40;99.90;;;;;;5094293;28;20330;-71
2021/10/18 01:16:48;;;;;;;15.90;7.15;;;11.50;99.90;;;;;;5092898;28;20051;-70
2021/10/18 01:19:21;;;;;;;10.90;6.93;;;11.40;99.90;;;;;;5093947;28;20051;-70
2021/10/18 01:21:47;;;;;;;12.05;7.18;;;11.40;99.90;;;;;;5092719;28;20067;-71
2021/10/18 01:24:13;;;;;;;12.02;7.28;;;11.40;99.90;;;;;;5094060;28;20075;-70
2021/10/18 01:26:39;;;;;;;12.20;7.38;;;11.40;99.90;;;;;;5094079;28;20506;-70
2021/10/18 01:29:04;;;;;;;11.00;7.35;;;11.40;99.90;;;;;;5093879;28;20081;-71
2021/10/18 01:31:30;;;;;;;13.05;7.40;;;11.40;99.90;;;;;;5092523;28;20598;-70
2021/10/18 01:33:56;;;;;;;10.93;7.95;;;11.40;99.90;;;;;;5093906;28;20046;-71
2021/10/18 01:36:21;;;;;;;10.30;6.93;;;11.40;99.90;;;;;;5093766;28;20040;-71
2021/10/18 01:38:48;;;;;;;11.95;7.78;;;11.40;99.90;;;;;;5093426;28;20040;-71
2021/10/18 01:41:14;;;;;;;14.60;8.13;;;11.40;99.90;;;;;;5093779;28;20050;-70
2021/10/18 01:43:39;;;;;;;9.30;7.93;;;11.40;99.90;;;;;;5092917;28;20115;-71
2021/10/18 01:46:05;;;;;;;10.60;7.90;;;11.30;99.90;;;;;;5093970;28;20046;-70
2021/10/18 01:48:31;;;;;;;11.43;8.52;;;11.30;99.90;;;;;;5093549;28;20111;-71
2021/10/18 01:50:57;;;;;;;14.32;8.25;;;11.30;99.90;;;;;;5093940;28;20115;-71
2021/10/18 01:53:23;;;;;;;15.07;8.18;;;11.30;99.90;;;;;;5093423;28;20419;-70
2021/10/18 01:55:49;;;;;;;10.88;7.82;;;11.30;99.90;;;;;;5093664;28;20100;-70
2021/10/18 01:58:15;;;;;;;15.00;8.15;;;11.30;99.90;;;;;;5093765;28;20044;-71
2021/10/18 02:00:42;;;;;;;12.25;8.27;;;11.20;99.90;;;;;;5074958;28;20036;-71
2021/10/18 02:03:08;;;;;;;13.15;8.20;;;11.20;99.90;;;;;;5093549;28;20092;-71
2021/10/18 02:05:34;;;;;;;13.43;8.38;;;11.20;99.90;;;;;;5092242;28;20047;-70
2021/10/18 02:08:00;;;;;;;12.18;8.80;;;11.20;99.90;;;;;;5093159;28;20472;-70
2021/10/18 02:10:25;;;;;;;13.68;8.88;;;11.20;99.90;;;;;;5092982;28;20036;-71
2021/10/18 02:12:51;;;;;;;14.32;9.45;;;11.20;99.90;;;;;;5093318;28;20454;-70
2021/10/18 02:15:17;;;;;;;15.75;9.63;;;11.20;99.90;;;;;;5093181;28;20115;-71
2021/10/18 02:17:43;;;;;;;15.50;9.00;;;11.20;99.90;;;;;;5093047;28;20035;-70
2021/10/18 02:20:10;;;;;;;18.23;9.75;;;11.20;99.90;;;;;;5091570;28;20131;-71
2021/10/18 02:22:36;;;;;;;14.57;8.68;;;11.30;99.90;;;;;;5093470;28;20527;-71
2021/10/18 02:25:05;;;;;;;13.18;10.25;;;11.20;99.90;;;;;;5097563;28;20518;-70
2021/10/18 02:27:31;;;;;;;16.45;9.60;;;11.30;99.90;;;;;;5097096;28;20048;-70
2021/10/18 02:29:57;;;;;;;13.80;9.65;;;11.30;99.90;;;;;;5096911;28;20172;-70
2021/10/18 02:32:23;;;;;;;14.45;10.38;;;11.30;99.90;;;;;;5097165;28;20066;-71
2021/10/18 02:34:49;;;;;;;12.85;9.52;;;11.20;99.90;;;;;;5095774;28;20039;-71
2021/10/18 02:37:14;;;;;;;12.27;9.13;;;11.30;99.90;;;;;;5095802;28;20093;-70
2021/10/18 02:39:40;;;;;;;14.15;9.68;;;11.20;99.90;;;;;;5095952;28;20051;-71
2021/10/18 02:42:06;;;;;;;12.68;10.50;;;11.20;99.90;;;;;;5097041;28;20051;-70
2021/10/18 02:44:31;;;;;;;15.40;9.90;;;11.20;99.90;;;;;;5097200;28;20097;-71
2021/10/18 02:46:57;;;;;;;14.70;10.20;;;11.20;99.90;;;;;;5097168;28;20048;-70
2021/10/18 02:49:22;;;;;;;17.42;11.38;;;11.20;99.90;;;;;;5096590;28;20054;-70
2021/10/18 02:51:49;;;;;;;14.60;10.27;;;11.20;99.90;;;;;;5096667;28;20097;-71
2021/10/18 02:54:15;;;;;;;14.10;9.82;;;11.20;99.90;;;;;;5096766;28;20036;-71
2021/10/18 02:56:41;;;;;;;19.08;11.38;;;11.10;99.90;;;;;;5097111;28;20087;-70
2021/10/18 02:59:06;;;;;;;18.70;9.70;;;11.10;99.90;;;;;;5096677;28;20504;-71
2021/10/18 03:01:32;;;;;;;16.95;10.43;;;11.10;99.90;;;;;;5096651;28;20501;-71
2021/10/18 03:03:58;;;;;;;17.48;10.68;;;11.00;99.90;;;;;;5096641;28;20403;-70
2021/10/18 03:06:24;;;;;;;13.57;9.88;;;11.00;99.90;;;;;;5095612;28;20478;-71
2021/10/18 03:08:49;;;;;;;16.85;11.02;;;11.00;99.90;;;;;;5096110;28;20051;-71
2021/10/18 03:11:15;;;;;;;18.27;11.40;;;11.00;99.90;;;;;;5096390;28;20115;-71
2021/10/18 03:13:41;;;;;;;15.27;10.45;;;10.90;99.90;;;;;;5095286;28;20476;-70
2021/10/18 03:16:06;;;;;;;14.38;10.63;;;10.90;99.90;;;;;;5095973;28;20502;-71
2021/10/18 03:18:32;;;;;;;15.77;10.00;;;10.90;99.90;;;;;;5094621;28;20047;-69
2021/10/18 03:20:57;;;;;;;21.48;11.40;;;10.90;99.90;;;;;;5096483;28;20123;-70
2021/10/18 03:23:23;;;;;;;16.95;11.43;;;10.90;99.90;;;;;;5096105;28;20044;-71
2021/10/18 03:25:49;;;;;;;18.60;10.15;;;10.90;99.90;;;;;;5096294;28;20032;-70
2021/10/18 03:28:14;;;;;;;14.10;10.35;;;10.80;99.90;;;;;;5095246;28;20366;-70
2021/10/18 03:30:40;;;;;;;15.25;9.88;;;10.80;99.90;;;;;;5094393;28;20040;-70
2021/10/18 03:33:05;;;;;;;15.63;10.48;;;10.80;99.90;;;;;;5095690;28;20085;-71
2021/10/18 03:35:31;;;;;;;18.75;10.98;;;10.70;99.90;;;;;;5096325;28;20486;-70
2021/10/18 03:37:57;;;;;;;12.45;10.32;;;10.70;99.90;;;;;;5096304;28;20044;-71
2021/10/18 03:40:22;;;;;;;17.13;11.02;;;10.60;99.90;;;;;;5095824;28;20127;-70
2021/10/18 03:42:48;;;;;;;17.52;11.05;;;10.60;99.90;;;;;;5095704;28;20397;-70
2021/10/18 03:45:14;;;;;;;15.93;11.10;;;10.60;99.90;;;;;;5095720;28;20036;-71
2021/10/18 03:47:40;;;;;;;18.75;10.60;;;10.60;99.90;;;;;;5095957;28;20480;-70
2021/10/18 03:50:07;;;;;;;16.27;11.52;;;10.60;99.90;;;;;;5095335;28;20036;-70
2021/10/18 03:52:32;;;;;;;16.98;10.80;;;10.60;99.90;;;;;;5094458;28;20044;-70
2021/10/18 03:54:58;;;;;;;16.85;11.85;;;10.50;99.90;;;;;;5095972;28;20046;-70
2021/10/18 03:57:23;;;;;;;18.98;11.45;;;10.50;99.90;;;;;;5095620;28;20480;-70
2021/10/18 03:59:49;;;;;;;15.88;10.75;;;10.50;99.90;;;;;;5095246;28;20479;-70
2021/10/18 04:02:14;;;;;;;18.23;11.90;;;10.50;99.90;;;;;;5095548;28;20123;-70
2021/10/18 04:04:40;;;;;;;21.10;11.75;;;10.40;99.90;;;;;;5094569;28;20036;-70
2021/10/18 04:07:06;;;;;;;18.35;11.55;;;10.40;99.90;;;;;;5095373;28;20040;-70
2021/10/18 04:09:32;;;;;;;17.90;10.70;;;10.30;99.90;;;;;;5093926;28;20126;-70
2021/10/18 04:11:58;;;;;;;20.25;11.55;;;10.30;99.90;;;;;;5095359;28;20054;-70
2021/10/18 04:14:24;;;;;;;16.25;12.55;;;10.20;99.90;;;;;;5095242;28;20036;-70
2021/10/18 04:16:49;;;;;;;18.38;12.15;;;10.10;99.90;;;;;;5094965;28;20499;-70
2021/10/18 04:19:15;;;;;;;16.65;12.70;;;10.10;99.90;;;;;;5094876;28;20122;-70
2021/10/18 04:21:41;;;;;;;20.70;12.48;;;10.10;99.90;;;;;;5094833;28;20068;-70
2021/10/18 04:24:07;;;;;;;15.98;12.60;;;10.10;99.90;;;;;;5094995;28;20047;-70
2021/10/18 04:26:32;;;;;;;15.60;11.85;;;10.10;99.90;;;;;;5094764;28;20044;-70
2021/10/18 04:28:58;;;;;;;17.38;11.48;;;10.10;99.90;;;;;;5093484;28;20058;-70
2021/10/18 04:31:28;;;;;;;16.85;12.95;;;10.10;99.90;;;;;;5094722;28;20472;-70
2021/10/18 04:33:59;;;;;;;18.95;11.95;;;10.10;99.90;;;;;;5094909;28;20079;-70
2021/10/18 04:36:25;;;;;;;19.65;13.15;;;10.10;99.90;;;;;;5093473;28;20040;-70
2021/10/18 04:38:51;;;;;;;18.17;12.18;;;10.10;99.90;;;;;;5093017;28;20442;-70
2021/10/18 04:41:17;;;;;;;20.67;13.07;;;10.10;99.90;;;;;;5093119;28;20040;-70
2021/10/18 04:43:42;;;;;;;16.92;12.45;;;10.10;99.90;;;;;;5093540;28;20039;-70
2021/10/18 04:46:08;;;;;;;19.25;12.98;;;10.10;99.90;;;;;;5092725;28;20044;-70
2021/10/18 04:48:34;;;;;;;19.15;12.57;;;10.10;99.90;;;;;;5094427;28;20396;-70
2021/10/18 04:50:59;;;;;;;20.23;13.25;;;10.10;99.90;;;;;;5094433;28;20120;-70
2021/10/18 04:53:25;;;;;;;21.95;12.52;;;10.10;99.90;;;;;;5094560;28;20032;-70
2021/10/18 04:55:50;;;;;;;20.38;13.38;;;10.10;99.90;;;;;;5094171;28;20036;-69
2021/10/18 04:58:16;;;;;;;19.98;12.95;;;10.00;99.90;;;;;;5094391;28;20044;-70
2021/10/18 05:00:47;;;;;;;14.70;12.15;;;10.00;99.90;;;;;;5093897;28;20031;-70
2021/10/18 05:03:13;;;;;;;19.20;13.63;;;10.00;99.90;;;;;;5094116;28;20120;-70
2021/10/18 05:05:39;;;;;;;20.15;13.40;;;9.90;99.90;;;;;;5092726;28;20079;-70
2021/10/18 05:08:07;;;;;;;23.25;13.57;;;10.00;99.90;;;;;;5094562;28;20039;-70
2021/10/18 05:10:34;;;;;;;18.55;13.35;;;9.90;99.90;;;;;;5093786;28;20122;-69
2021/10/18 05:13:01;;;;;;;23.05;14.20;;;9.90;99.90;;;;;;5094393;28;20058;-70
2021/10/18 05:15:26;;;;;;;18.35;13.00;;;9.90;99.90;;;;;;5093916;28;20047;-70
2021/10/18 05:17:53;;;;;;;19.35;13.32;;;9.80;99.90;;;;;;5093644;28;20044;-70
2021/10/18 05:20:18;;;;;;;19.67;13.95;;;9.80;99.90;;;;;;5093997;28;20039;-70
2021/10/18 05:22:44;;;;;;;19.48;14.23;;;9.80;99.90;;;;;;5094041;28;20377;-69
2021/10/18 05:25:10;;;;;;;18.55;13.07;;;9.70;99.90;;;;;;5092909;28;20093;-70
2021/10/18 05:27:37;;;;;;;20.77;13.50;;;9.70;99.90;;;;;;5094164;28;20358;-70
2021/10/18 05:30:05;;;;;;;20.33;13.80;;;9.70;99.90;;;;;;5093782;28;20028;-69
2021/10/18 05:32:30;;;;;;;18.40;13.68;;;9.70;99.90;;;;;;5093755;28;20087;-69
2021/10/18 05:34:56;;;;;;;21.73;13.57;;;9.60;99.90;;;;;;5092562;28;20079;-69
2021/10/18 05:37:21;;;;;;;20.25;13.65;;;9.60;99.90;;;;;;5093756;28;20124;-68
2021/10/18 05:39:47;;;;;;;25.27;15.25;;;9.60;99.90;;;;;;5093161;28;20063;-69
2021/10/18 05:42:12;;;;;;;19.15;13.65;;;9.60;99.90;;;;;;5093103;28;20500;-69
2021/10/18 05:44:38;;;;;;;22.23;14.88;;;9.60;99.90;;;;;;5093593;28;20051;-69
2021/10/18 05:47:04;;;;;;;22.08;14.68;;;9.60;99.90;;;;;;5094119;28;20462;-69
2021/10/18 05:49:30;;;;;;;23.70;15.80;;;9.50;99.90;;;;;;5093307;28;20071;-69
2021/10/18 05:51:56;;;;;;;22.58;14.50;;;9.50;99.90;;;;;;5093447;28;20090;-69
2021/10/18 05:54:21;;;;;;;21.30;16.35;;;9.50;99.90;;;;;;5094030;28;20075;-69
2021/10/18 05:56:47;;;;;;;20.55;15.52;;;9.50;99.90;;;;;;5093636;28;20054;-69
2021/10/18 05:59:13;;;;;;;24.60;15.90;;;9.50;99.90;;;;;;5093243;28;20050;-69
2021/10/18 06:01:39;;;;;;;22.40;15.75;;;9.50;99.90;;;;;;5092467;28;20124;-68
2021/10/18 06:04:04;;;;;;;26.80;16.08;;;9.50;99.90;;;;;;5093783;28;20585;-68
2021/10/18 06:06:35;;;;;;;22.08;15.05;;;9.50;99.90;;;;;;5093281;28;20045;-69
2021/10/18 06:09:00;;;;;;;23.48;15.52;;;9.60;99.90;;;;;;5092204;28;20515;-69
2021/10/18 06:11:26;;;;;;;24.35;15.25;;;9.50;99.90;;;;;;5093471;28;20048;-68
2021/10/18 06:13:52;;;;;;;22.85;16.63;;;9.60;99.90;;;;;;5092043;28;20488;-69
2021/10/18 06:16:18;;;;;;;22.75;16.25;;;9.60;99.90;;;;;;5093198;28;20044;-69
2021/10/18 06:18:43;;;;;;;25.98;16.63;;;9.60;99.90;;;;;;5092108;28;20036;-68
2021/10/18 06:21:09;;;;;;;26.08;18.27;;;9.70;99.90;;;;;;5092450;28;20044;-68
2021/10/18 06:23:35;;;;;;;27.65;15.75;;;9.70;99.90;;;;;;5093018;28;20115;-67
2021/10/18 06:26:00;;;;;;;25.08;17.67;;;9.80;99.90;;;;;;5093690;28;20044;-68
2021/10/18 06:28:26;;;;;;;23.67;17.20;;;9.80;99.90;;;;;;5093157;28;20039;-68
2021/10/18 06:30:52;;;;;;;28.50;20.10;;;9.80;99.90;;;;;;5093039;28;20504;-68
2021/10/18 06:33:20;;;;;;;28.60;19.10;;;9.90;99.90;;;;;;5091941;28;20590;-68
2021/10/18 06:35:47;;;;;;;24.75;17.00;;;9.90;99.90;;;;;;5093025;28;20488;-67
2021/10/18 06:38:15;;;;;;;25.17;16.75;;;9.90;99.90;;;;;;5093108;28;20042;-68
2021/10/18 06:40:42;;;;;;;24.50;16.95;;;9.90;99.90;;;;;;5092655;28;20124;-68
2021/10/18 06:43:09;;;;;;;26.77;17.27;;;10.00;99.90;;;;;;5093025;28;20109;-68
2021/10/18 06:45:35;;;;;;;28.60;17.33;;;10.00;99.90;;;;;;5093048;28;20032;-68
2021/10/18 06:48:00;;;;;;;25.67;17.23;;;10.00;99.90;;;;;;5093038;28;20040;-68
2021/10/18 06:50:28;;;;;;;27.40;17.70;;;10.10;99.90;;;;;;5091422;28;20105;-66
2021/10/18 06:52:55;;;;;;;29.05;17.92;;;10.10;99.90;;;;;;5092874;28;20040;-68
2021/10/18 06:55:22;;;;;;;24.65;18.15;;;10.20;99.90;;;;;;5093016;28;20048;-68
2021/10/18 06:57:47;;;;;;;25.88;16.80;;;10.20;99.90;;;;;;5091629;28;20093;-68
2021/10/18 07:00:13;;;;;;;25.20;18.05;;;10.30;99.90;;;;;;5092500;28;20429;-68
2021/10/18 07:02:39;;;;;;;25.05;18.45;;;10.30;99.90;;;;;;5093197;28;20043;-68
2021/10/18 07:05:05;;;;;;;25.02;17.73;;;10.30;99.90;;;;;;5093140;28;20036;-68
2021/10/18 07:07:31;;;;;;;30.63;18.50;;;10.30;99.90;;;;;;5092761;28;20044;-68
2021/10/18 07:10:00;;;;;;;26.58;18.05;;;10.40;99.90;;;;;;5094873;28;20460;-68
2021/10/18 07:12:28;;;;;;;35.17;19.75;;;10.40;99.90;;;;;;5096647;28;20043;-68
2021/10/18 07:14:55;;;;;;;29.75;18.35;;;10.40;99.90;;;;;;5096337;28;20040;-68
2021/10/18 07:17:24;;;;;;;28.02;18.58;;;10.50;99.90;;;;;;5096232;28;20047;-68
2021/10/18 07:19:50;;;;;;;28.67;18.65;;;10.50;99.90;;;;;;5094537;28;20036;-68
2021/10/18 07:22:20;;;;;;;27.10;17.48;;;10.60;99.90;;;;;;5096175;28;20048;-69
2021/10/18 07:24:46;;;;;;;23.45;16.92;;;10.60;99.90;;;;;;5096367;28;20040;-69
2021/10/18 07:27:12;;;;;;;23.70;17.33;;;10.60;99.90;;;;;;5096337;28;20376;-69
2021/10/18 07:29:38;;;;;;;24.23;16.33;;;10.70;99.90;;;;;;5095684;28;20119;-69
2021/10/18 07:32:05;;;;;;;25.15;17.80;;;10.70;99.90;;;;;;5096238;28;20044;-68
2021/10/18 07:34:31;;;;;;;25.80;17.42;;;10.80;99.90;;;;;;5095632;28;20436;-68
2021/10/18 07:36:57;;;;;;;25.52;16.95;;;10.80;99.90;;;;;;5096252;28;20124;-68
2021/10/18 07:39:25;;;;;;;23.70;17.23;;;10.80;99.90;;;;;;5095826;28;20110;-69
2021/10/18 07:41:54;;;;;;;24.52;16.30;;;10.90;99.90;;;;;;5095959;28;20042;-68
2021/10/18 07:44:21;;;;;;;21.52;16.38;;;10.90;99.90;;;;;;5095846;28;20123;-68
2021/10/18 07:46:47;;;;;;;25.42;16.23;;;10.90;99.90;;;;;;5095009;28;20044;-68
2021/10/18 07:49:13;;;;;;;24.70;15.68;;;11.00;99.90;;;;;;5094827;28;20055;-68
2021/10/18 07:51:39;;;;;;;24.27;16.85;;;11.10;99.90;;;;;;5095716;28;20044;-69
2021/10/18 07:54:05;;;;;;;26.75;16.77;;;11.10;99.90;;;;;;5095880;28;20043;-68
2021/10/18 07:56:32;;;;;;;24.30;16.35;;;11.20;99.90;;;;;;5094479;28;20074;-69
2021/10/18 07:58:58;;;;;;;21.50;16.45;;;11.20;99.90;;;;;;5095601;28;20051;-68
2021/10/18 08:01:23;;;;;;;21.88;16.10;;;11.20;99.90;;;;;;5095322;28;20123;-68
2021/10/18 08:03:49;;;;;;;22.65;15.80;;;11.30;99.90;;;;;;5095551;28;20127;-69
2021/10/18 08:06:15;;;;;;;21.75;16.25;;;11.30;99.90;;;;;;5094221;28;20044;-69
2021/10/18 08:08:52;;;;;;;22.67;16.90;;;11.30;99.90;;;;;;5093856;28;20040;-69
2021/10/18 08:11:18;;;;;;;28.10;17.38;;;11.40;99.90;;;;;;5094538;28;20044;-69
2021/10/18 08:13:44;;;;;;;24.73;17.52;;;11.40;99.90;;;;;;5094258;28;20572;-69
2021/10/18 08:16:10;;;;;;;24.65;17.55;;;11.50;99.90;;;;;;5094860;28;20123;-70
2021/10/18 08:18:37;;;;;;;29.80;17.92;;;11.50;99.90;;;;;;5094840;28;20070;-70
2021/10/18 08:21:07;;;;;;;31.45;18.35;;;11.60;99.90;;;;;;5094158;28;20042;-69
2021/10/18 08:23:33;;;;;;;36.90;18.83;;;11.60;99.90;;;;;;5095423;28;20043;-69
2021/10/18 08:26:00;;;;;;;46.00;18.27;;;11.60;99.90;;;;;;5094356;28;20040;-69
2021/10/18 08:28:26;;;;;;;30.20;18.10;;;11.70;99.90;;;;;;5095511;28;20062;-70
2021/10/18 08:30:51;;;;;;;22.55;16.48;;;11.70;99.90;;;;;;5095192;28;20028;-69
2021/10/18 08:33:17;;;;;;;28.60;18.33;;;11.70;99.90;;;;;;5095224;28;20044;-69
2021/10/18 08:35:43;;;;;;;26.20;17.60;;;11.80;99.90;;;;;;5094967;28;20039;-69
2021/10/18 08:38:20;;;;;;;27.25;18.13;;;11.80;99.90;;;;;;5093905;28;20047;-69
2021/10/18 08:44:13;;;;;;;23.88;18.10;;;11.90;99.90;;;;;;5093554;28;20048;-69
2021/10/18 08:46:11;;;;;;;26.48;17.55;;;11.90;99.90;;;;;;5094523;28;20067;-69
2021/10/18 08:48:38;;;;;;;24.98;16.45;;;11.90;99.90;;;;;;5094452;28;20492;-70
2021/10/18 08:51:03;;;;;;;26.10;18.20;;;11.90;99.90;;;;;;5094508;28;20504;-70
2021/10/18 08:53:29;;;;;;;25.08;17.45;;;12.00;99.90;;;;;;5094420;28;20047;-69
2021/10/18 08:55:55;;;;;;;25.05;17.55;;;12.00;99.90;;;;;;5094545;28;20043;-69
2021/10/18 08:58:20;;;;;;;25.05;17.70;;;12.00;99.90;;;;;;5093212;28;20380;-69
2021/10/18 09:00:53;;;;;;;22.38;16.98;;;12.00;99.90;;;;;;5094047;28;20051;-69
2021/10/18 09:03:28;;;;;;;24.40;17.10;;;12.10;99.90;;;;;;5094571;28;20038;-69
2021/10/18 09:06:17;;;;;;;22.88;17.33;;;12.10;99.90;;;;;;5094446;28;20139;-69
2021/10/18 09:08:49;;;;;;;26.20;17.95;;;12.20;99.90;;;;;;5093978;28;20040;-70
2021/10/18 09:11:28;;;;;;;25.15;19.13;;;12.30;99.90;;;;;;5093156;28;20570;-69
2021/10/18 09:13:53;;;;;;;24.88;17.23;;;12.30;99.90;;;;;;5094704;28;20042;-69
2021/10/18 09:16:28;;;;;;;27.23;18.73;;;12.30;99.90;;;;;;5094227;28;20044;-69
2021/10/18 09:19:02;;;;;;;23.38;18.23;;;12.40;99.90;;;;;;5094095;28;20040;-69
2021/10/18 09:21:37;;;;;;;26.27;18.20;;;12.40;99.90;;;;;;5092831;28;20052;-69
2021/10/18 09:24:03;;;;;;;27.55;19.33;;;12.50;99.90;;;;;;5092947;28;20040;-69
2021/10/18 09:26:32;;;;;;;23.20;18.33;;;12.50;99.90;;;;;;5094436;28;20032;-69
2021/10/18 09:29:04;;;;;;;28.67;20.65;;;12.50;99.90;;;;;;5093837;28;20044;-70
2021/10/18 09:31:30;;;;;;;27.55;18.70;;;12.60;99.90;;;;;;5093844;28;20082;-69
2021/10/18 09:34:04;;;;;;;29.30;20.80;;;12.70;99.90;;;;;;5093758;28;20040;-69
2021/10/18 09:36:31;;;;;;;25.50;19.42;;;12.70;99.90;;;;;;5092899;28;20119;-69
2021/10/18 09:39:24;;;;;;;25.25;19.30;;;12.80;99.90;;;;;;5093432;28;20128;-70
2021/10/18 09:42:02;;;;;;;27.00;19.25;;;12.80;99.90;;;;;;5093659;28;20052;-69
2021/10/18 10:52:42;;;;;;;23.77;17.30;;;14.30;99.90;;;;;;5095631;28;20485;-72
2021/10/18 10:55:31;;;;;;;23.77;17.15;;;14.20;99.90;;;;;;5096814;28;20047;-71
2021/10/18 10:57:59;;;;;;;22.00;16.08;;;14.30;99.90;;;;;;5095949;28;20051;-71
2021/10/18 11:00:41;;;;;;;24.08;16.73;;;14.30;99.90;;;;;;5096265;28;20036;-70
2021/10/18 11:03:39;;;;;;;21.50;16.17;;;14.40;99.90;;;;;;5096583;28;20459;-71
2021/10/18 11:06:13;;;;;;;22.15;16.58;;;14.30;99.90;;;;;;5096999;28;20082;-72
2021/10/18 11:08:44;;;;;;;23.40;16.77;;;14.30;99.90;;;;;;5096302;28;20055;-72
2021/10/18 11:11:22;;;;;;;20.85;16.35;;;14.40;99.90;;;;;;5096564;28;20036;-71
2021/10/18 11:13:54;;;;;;;23.35;16.10;;;14.40;99.90;;;;;;5096643;28;20043;-71
2021/10/18 11:16:22;;;;;;;24.60;16.88;;;14.50;99.90;;;;;;5096613;28;20066;-72
2021/10/18 11:18:54;;;;;;;22.35;16.02;;;14.50;99.90;;;;;;5096033;28;20407;-72
2021/10/18 11:21:29;;;;;;;20.30;14.52;;;14.60;99.90;;;;;;5096435;28;20048;-71
2021/10/18 11:24:00;;;;;;;23.17;16.33;;;14.60;99.90;;;;;;5096312;28;20115;-71
2021/10/18 11:26:29;;;;;;;21.20;15.20;;;14.60;99.90;;;;;;5095083;28;20502;-71
2021/10/18 11:28:57;;;;;;;24.67;16.23;;;14.70;99.90;;;;;;5095954;28;20043;-71
2021/10/18 11:31:34;;;;;;;19.20;14.50;;;14.70;99.90;;;;;;5096170;28;20039;-71
2021/10/18 11:34:18;;;;;;;21.92;15.38;;;14.70;99.90;;;;;;5096077;28;20040;-72
2021/10/18 11:36:49;;;;;;;19.00;13.73;;;14.70;99.90;;;;;;5095099;28;20123;-72
2021/10/18 11:39:21;;;;;;;19.33;14.38;;;14.70;99.90;;;;;;5095840;28;20036;-71
2021/10/18 11:42:04;;;;;;;17.80;13.05;;;14.70;99.90;;;;;;5095887;28;20063;-71
2021/10/18 11:44:39;;;;;;;19.65;13.63;;;14.70;99.90;;;;;;5095247;28;20035;-71
2021/10/18 11:47:05;;;;;;;17.40;12.95;;;14.80;99.90;;;;;;5095839;28;20050;-72
2021/10/18 11:49:30;;;;;;;25.67;15.32;;;14.80;99.90;;;;;;5095531;28;20047;-72
2021/10/18 11:51:56;;;;;;;18.05;14.07;;;14.90;99.90;;;;;;5095820;28;20122;-71
2021/10/18 11:54:22;;;;;;;21.40;14.38;;;14.90;99.90;;;;;;5095508;28;20039;-72
2021/10/18 11:56:54;;;;;;;20.58;13.43;;;14.90;99.90;;;;;;5094694;28;20461;-72
2021/10/18 11:59:20;;;;;;;18.35;14.10;;;14.90;99.90;;;;;;5095672;28;20123;-72
2021/10/18 12:01:45;;;;;;;18.80;14.45;;;14.80;98.90;;;;;;5079336;28;20123;-72
2021/10/18 12:04:11;;;;;;;23.23;14.65;;;14.70;99.60;;;;;;5075203;28;20481;-70
2021/10/18 12:06:48;;;;;;;20.83;13.98;;;14.70;99.90;;;;;;5075319;28;20037;-71
2021/10/18 12:09:27;;;;;;;23.05;14.40;;;14.70;99.90;;;;;;5074846;28;20036;-72
2021/10/18 12:11:53;;;;;;;23.42;14.65;;;14.80;99.90;;;;;;5073798;28;20523;-71
2021/10/18 12:14:19;;;;;;;19.38;14.50;;;14.70;99.90;;;;;;5075342;28;20080;-71
2021/10/18 12:16:45;;;;;;;23.05;13.55;;;14.70;99.90;;;;;;5074989;28;20063;-71
2021/10/18 12:19:11;;;;;;;20.10;13.85;;;14.70;99.90;;;;;;5073480;28;20051;-71
2021/10/18 12:21:39;;;;;;;20.45;14.35;;;14.70;99.90;;;;;;5074731;28;20119;-71
2021/10/18 12:24:14;;;;;;;25.35;15.63;;;14.70;99.90;;;;;;5073553;28;20044;-72
2021/10/18 12:26:43;;;;;;;22.02;15.18;;;14.80;99.90;;;;;;5074987;28;20115;-71
2021/10/18 12:29:10;;;;;;;21.83;14.57;;;14.80;99.90;;;;;;5074475;28;20048;-71
2021/10/18 12:31:48;;;;;;;21.92;15.40;;;14.80;99.90;;;;;;5075004;28;20036;-71
2021/10/18 12:34:23;;;;;;;23.52;14.85;;;14.80;99.90;;;;;;5074101;28;20076;-72
2021/10/18 12:37:02;;;;;;;31.65;16.98;;;14.90;99.90;;;;;;5073801;28;20082;-71
2021/10/18 12:39:31;;;;;;;22.65;15.48;;;14.90;99.90;;;;;;5074499;28;20503;-72
2021/10/18 12:41:57;;;;;;;21.88;14.45;;;14.90;99.90;;;;;;5073810;28;20072;-71
2021/10/18 12:44:35;;;;;;;22.25;15.48;;;15.00;99.90;;;;;;5073615;28;20481;-71
2021/10/18 12:47:01;;;;;;;22.75;15.65;;;15.00;99.90;;;;;;5074666;28;20113;-70
2021/10/18 12:49:29;;;;;;;29.02;15.35;;;15.00;99.90;;;;;;5073374;28;20040;-71
2021/10/18 12:51:54;;;;;;;55.03;19.30;;;14.90;99.90;;;;;;5074862;28;20039;-71
2021/10/18 12:54:22;;;;;;;30.50;16.92;;;14.90;99.90;;;;;;5073455;28;20036;-71
2021/10/18 12:57:03;;;;;;;22.25;14.85;;;14.90;99.90;;;;;;5074416;28;20047;-71
2021/10/18 12:59:31;;;;;;;20.73;15.30;;;14.90;99.90;;;;;;5074375;28;20072;-72
2021/10/18 13:02:16;;;;;;;22.30;14.23;;;14.90;99.90;;;;;;5074548;28;20048;-71
2021/10/18 13:05:16;;;;;;;20.15;14.02;;;14.90;99.90;;;;;;5074255;28;20388;-71
2021/10/18 13:08:08;;;;;;;20.65;13.90;;;14.90;99.90;;;;;;5073694;28;20037;-73
2021/10/18 13:10:41;;;;;;;21.23;14.20;;;14.80;99.90;;;;;;5073827;28;20041;-72
2021/10/18 13:13:09;;;;;;;17.88;13.07;;;14.80;99.90;;;;;;5074034;28;20044;-72
2021/10/18 13:15:35;;;;;;;21.30;13.98;;;14.90;99.90;;;;;;5073892;28;20503;-71
2021/10/18 13:18:02;;;;;;;21.30;13.52;;;14.80;99.90;;;;;;5072898;28;20036;-71
2021/10/18 13:20:28;;;;;;;19.10;13.98;;;14.80;99.90;;;;;;5073543;28;20041;-71
2021/10/18 13:22:56;;;;;;;20.23;13.60;;;14.80;99.90;;;;;;5073664;28;20040;-71
2021/10/18 13:25:28;;;;;;;17.42;12.48;;;14.80;99.90;;;;;;5073969;28;20083;-71
2021/10/18 13:27:54;;;;;;;20.02;12.73;;;14.90;99.90;;;;;;5073823;28;20048;-71
2021/10/18 13:30:21;;;;;;;17.13;13.20;;;14.90;99.90;;;;;;5073874;28;20036;-71
2021/10/18 13:32:48;;;;;;;17.45;12.93;;;14.90;99.90;;;;;;5073461;28;20072;-71
2021/10/18 13:35:15;;;;;;;18.35;12.80;;;14.90;99.90;;;;;;5073602;28;20051;-71
2021/10/18 13:37:41;;;;;;;19.27;13.95;;;14.90;99.90;;;;;;5073607;28;20090;-71
2021/10/18 13:40:08;;;;;;;18.88;13.75;;;14.80;99.90;;;;;;5055585;28;20041;-72
2021/10/18 13:42:34;;;;;;;17.98;13.13;;;14.80;99.90;;;;;;5073378;28;20512;-72
2021/10/18 13:45:00;;;;;;;17.95;12.52;;;14.90;99.90;;;;;;5073421;28;20028;-71